Time;durP1;ratioP1;P1;durP2;ratioP2;P2;SDS_P1;SDS_P2;PMS_P1;PMS_P2;Temp;Humidity;BMP_temperature;BMP_pressure;BME280_temperature;BME280_humidity;BME280_pressure;Samples;Min_cycle;Max_cycle;Signal;HPM_P1;HPM_P2
2021/05/09 00:01:42;;;;;;;14.13;6.60;;;;;;;;;;4285685;33;20676;-55
2021/05/09 00:04:09;;;;;;;7.20;3.70;;;;;;;;;;4287220;33;20279;-55
2021/05/09 00:06:35;;;;;;;5.63;2.80;;;;;;;;;;4286980;33;20483;-55
2021/05/09 00:09:01;;;;;;;2.73;1.80;;;;;;;;;;4286948;33;20359;-56
2021/05/09 00:11:27;;;;;;;7.87;1.93;;;;;;;;;;4287002;33;20358;-54
2021/05/09 00:13:52;;;;;;;3.17;2.10;;;;;;;;;;4286571;33;20219;-55
2021/05/09 00:16:18;;;;;;;4.40;2.17;;;;;;;;;;4286894;33;20307;-55
2021/05/09 00:18:44;;;;;;;2.90;1.70;;;;;;;;;;4272321;33;20725;-55
2021/05/09 00:21:10;;;;;;;1.80;1.27;;;;;;;;;;4268493;33;20303;-55
2021/05/09 00:23:35;;;;;;;5.70;1.93;;;;;;;;;;4257713;33;20339;-54
2021/05/09 00:26:01;;;;;;;3.80;2.27;;;;;;;;;;4257895;33;20279;-66
2021/05/09 00:28:27;;;;;;;3.03;1.67;;;;;;;;;;4258169;33;20892;-66
2021/05/09 00:30:52;;;;;;;2.87;2.13;;;;;;;;;;4258099;33;20292;-66
2021/05/09 00:33:18;;;;;;;2.57;1.93;;;;;;;;;;4257550;33;20353;-54
2021/05/09 00:35:44;;;;;;;3.40;1.90;;;;;;;;;;4257915;33;20284;-54
2021/05/09 00:38:09;;;;;;;2.33;1.90;;;;;;;;;;4268551;33;20221;-55
2021/05/09 00:40:36;;;;;;;27.30;11.70;;;;;;;;;;4257748;33;20276;-55
2021/05/09 00:43:01;;;;;;;48.10;19.13;;;;;;;;;;4257516;33;20232;-54
2021/05/09 00:45:27;;;;;;;47.20;17.40;;;;;;;;;;4257623;33;20305;-55
2021/05/09 00:47:52;;;;;;;55.17;21.63;;;;;;;;;;4268237;33;20318;-54
2021/05/09 00:50:19;;;;;;;38.13;16.07;;;;;;;;;;4275723;33;20370;-54
2021/05/09 00:52:48;;;;;;;54.60;24.60;;;;;;;;;;4285803;33;20424;-54
2021/05/09 00:55:15;;;;;;;68.10;34.00;;;;;;;;;;4285846;33;20361;-54
2021/05/09 00:57:44;;;;;;;33.17;16.97;;;;;;;;;;4286017;33;20255;-54
2021/05/09 01:00:12;;;;;;;29.80;14.67;;;;;;;;;;4285866;33;20230;-54
2021/05/09 01:02:44;;;;;;;26.80;19.37;;;;;;;;;;4285781;33;20670;-54
2021/05/09 01:05:10;;;;;;;20.43;9.93;;;;;;;;;;4285964;33;20299;-54
2021/05/09 01:07:36;;;;;;;18.17;9.17;;;;;;;;;;4285844;33;20573;-53
2021/05/09 01:10:08;;;;;;;15.23;7.30;;;;;;;;;;4285828;33;20279;-55
2021/05/09 01:12:34;;;;;;;12.67;6.50;;;;;;;;;;4285779;33;20239;-54
2021/05/09 01:15:02;;;;;;;13.03;6.37;;;;;;;;;;4286029;33;20302;-54
2021/05/09 01:17:27;;;;;;;10.77;6.00;;;;;;;;;;4285522;33;20732;-54
2021/05/09 01:19:53;;;;;;;16.37;6.90;;;;;;;;;;4257673;33;20414;-54
2021/05/09 01:22:19;;;;;;;13.30;6.63;;;;;;;;;;4257793;33;20599;-54
2021/05/09 01:24:44;;;;;;;11.07;5.73;;;;;;;;;;4268292;33;20637;-54
2021/05/09 01:27:10;;;;;;;11.97;6.47;;;;;;;;;;4257379;33;20229;-54
2021/05/09 01:29:36;;;;;;;20.27;9.80;;;;;;;;;;4257843;33;20673;-55
2021/05/09 01:32:04;;;;;;;12.17;5.87;;;;;;;;;;4267922;33;20244;-54
2021/05/09 01:34:36;;;;;;;4.30;2.63;;;;;;;;;;4267891;33;20259;-54
2021/05/09 01:37:03;;;;;;;2.37;1.87;;;;;;;;;;4267764;33;20281;-54
2021/05/09 01:39:29;;;;;;;2.70;1.73;;;;;;;;;;4257286;33;20231;-54
2021/05/09 01:41:56;;;;;;;3.50;1.80;;;;;;;;;;4257511;33;20217;-55
2021/05/09 01:44:23;;;;;;;2.17;1.40;;;;;;;;;;4256353;33;20201;-55
2021/05/09 01:46:49;;;;;;;3.83;2.20;;;;;;;;;;4267640;33;20611;-55
2021/05/09 01:49:14;;;;;;;3.70;2.37;;;;;;;;;;4257148;33;20291;-55
2021/05/09 01:51:40;;;;;;;3.97;2.73;;;;;;;;;;4283515;33;20216;-54
2021/05/09 01:54:05;;;;;;;6.93;2.40;;;;;;;;;;4272649;33;20307;-54
2021/05/09 01:56:31;;;;;;;5.03;2.10;;;;;;;;;;4285332;33;20267;-67
2021/05/09 01:58:57;;;;;;;3.33;1.77;;;;;;;;;;4285506;33;20267;-67
2021/05/09 02:01:23;;;;;;;3.87;1.57;;;;;;;;;;4285235;33;20240;-67
2021/05/09 02:03:48;;;;;;;3.37;1.77;;;;;;;;;;4285543;33;20274;-54
2021/05/09 02:06:14;;;;;;;6.53;2.03;;;;;;;;;;4284879;33;20647;-54
2021/05/09 02:08:39;;;;;;;4.00;1.93;;;;;;;;;;4285351;33;20276;-54
2021/05/09 02:11:05;;;;;;;3.37;2.37;;;;;;;;;;4285345;33;20288;-54
2021/05/09 02:13:30;;;;;;;6.40;1.83;;;;;;;;;;4285047;33;20227;-54
2021/05/09 02:15:56;;;;;;;3.00;1.60;;;;;;;;;;4285470;33;20621;-54
2021/05/09 02:18:21;;;;;;;3.77;2.00;;;;;;;;;;4275173;33;20343;-54
2021/05/09 02:20:47;;;;;;;3.60;1.83;;;;;;;;;;4256844;33;20354;-54
2021/05/09 02:23:13;;;;;;;3.17;1.70;;;;;;;;;;4255738;33;20364;-55
2021/05/09 02:25:38;;;;;;;3.90;2.10;;;;;;;;;;4256698;33;20310;-56
2021/05/09 02:28:05;;;;;;;2.93;1.90;;;;;;;;;;4256925;33;20355;-54
2021/05/09 02:30:31;;;;;;;5.47;2.27;;;;;;;;;;4256651;33;20271;-67
2021/05/09 02:32:56;;;;;;;3.53;2.43;;;;;;;;;;4256796;33;20532;-67
2021/05/09 02:35:22;;;;;;;5.10;2.17;;;;;;;;;;4256651;33;20736;-67
2021/05/09 02:37:47;;;;;;;9.50;2.97;;;;;;;;;;4267040;33;20310;-66
2021/05/09 02:40:13;;;;;;;6.87;3.97;;;;;;;;;;4256337;33;20636;-68
2021/05/09 02:42:38;;;;;;;7.67;3.00;;;;;;;;;;4256603;33;20216;-67
2021/05/09 02:45:05;;;;;;;14.47;6.43;;;;;;;;;;4256409;33;20303;-67
2021/05/09 02:47:32;;;;;;;31.77;10.23;;;;;;;;;;4256311;33;20255;-68
2021/05/09 02:50:05;;;;;;;32.37;12.13;;;;;;;;;;4262901;33;20593;-67
2021/05/09 02:52:31;;;;;;;46.83;12.30;;;;;;;;;;4283637;33;20350;-68
2021/05/09 02:54:57;;;;;;;30.23;11.87;;;;;;;;;;4283348;33;20334;-54
2021/05/09 02:57:23;;;;;;;34.47;12.17;;;;;;;;;;4284807;33;20278;-54
2021/05/09 02:59:48;;;;;;;23.33;8.60;;;;;;;;;;4284832;33;20270;-55
2021/05/09 03:02:17;;;;;;;13.93;6.30;;;;;;;;;;4284478;33;20317;-54
2021/05/09 03:04:43;;;;;;;10.43;5.43;;;;;;;;;;4284594;33;20298;-54
2021/05/09 03:07:09;;;;;;;8.90;4.83;;;;;;;;;;4284472;33;20235;-54
2021/05/09 03:09:35;;;;;;;11.93;6.00;;;;;;;;;;4283226;33;20684;-55
2021/05/09 03:12:03;;;;;;;13.60;7.00;;;;;;;;;;4295419;33;20236;-54
2021/05/09 03:14:28;;;;;;;6.50;4.13;;;;;;;;;;4284309;33;20220;-54
2021/05/09 03:16:54;;;;;;;9.10;5.17;;;;;;;;;;4284687;33;20366;-66
2021/05/09 03:19:20;;;;;;;7.17;2.77;;;;;;;;;;4262680;33;20317;-66
2021/05/09 03:21:46;;;;;;;7.87;2.50;;;;;;;;;;4256119;33;20217;-67
2021/05/09 03:24:12;;;;;;;3.33;1.93;;;;;;;;;;4256394;33;20366;-67
2021/05/09 03:26:38;;;;;;;4.93;2.60;;;;;;;;;;4256118;33;20312;-53
2021/05/09 03:29:05;;;;;;;10.20;3.33;;;;;;;;;;4256023;33;20719;-53
2021/05/09 03:31:31;;;;;;;9.57;3.10;;;;;;;;;;4255819;33;20657;-53
2021/05/09 03:33:56;;;;;;;6.53;3.73;;;;;;;;;;4266504;33;20706;-53
2021/05/09 03:36:22;;;;;;;10.03;4.00;;;;;;;;;;4255880;33;20229;-53
2021/05/09 03:38:48;;;;;;;11.37;3.20;;;;;;;;;;4256207;33;20280;-54
2021/05/09 03:41:14;;;;;;;7.17;4.03;;;;;;;;;;4254871;33;20346;-53
2021/05/09 03:43:40;;;;;;;8.73;4.10;;;;;;;;;;4255875;33;20305;-54
2021/05/09 03:46:05;;;;;;;10.77;4.77;;;;;;;;;;4266412;33;20316;-54
2021/05/09 03:48:32;;;;;;;9.53;4.57;;;;;;;;;;4256229;33;20291;-66
2021/05/09 03:50:57;;;;;;;8.77;3.80;;;;;;;;;;4273840;33;20646;-68
2021/05/09 03:53:24;;;;;;;7.07;3.90;;;;;;;;;;4284528;33;20283;-68
2021/05/09 03:55:49;;;;;;;12.47;4.03;;;;;;;;;;4284235;33;20317;-67
2021/05/09 03:58:15;;;;;;;4.97;3.40;;;;;;;;;;4284269;33;20295;-68
2021/05/09 04:00:40;;;;;;;7.57;3.53;;;;;;;;;;4284581;33;20290;-68
2021/05/09 04:03:38;;;;;;;6.90;2.77;;;;;;;;;;4284417;33;20311;-68
2021/05/09 04:06:04;;;;;;;22.33;15.17;;;;;;;;;;4262730;33;20689;-68
2021/05/09 04:08:30;;;;;;;22.33;15.80;;;;;;;;;;4284538;33;20422;-67
2021/05/09 04:11:00;;;;;;;25.43;13.07;;;;;;;;;;4284364;33;20271;-68
2021/05/09 04:13:25;;;;;;;18.47;8.70;;;;;;;;;;4282642;33;20294;-67
2021/05/09 04:15:55;;;;;;;12.37;8.73;;;;;;;;;;4283380;33;20302;-53
2021/05/09 04:18:21;;;;;;;16.80;10.77;;;;;;;;;;4273983;33;20271;-53
2021/05/09 04:20:47;;;;;;;19.27;11.13;;;;;;;;;;4266214;33;20303;-66
2021/05/09 04:23:19;;;;;;;19.83;10.47;;;;;;;;;;4255805;33;20217;-53
2021/05/09 04:25:52;;;;;;;25.00;9.57;;;;;;;;;;4255735;33;20731;-66
2021/05/09 04:28:20;;;;;;;20.93;8.83;;;;;;;;;;4255694;33;20755;-66
2021/05/09 04:30:49;;;;;;;12.73;6.80;;;;;;;;;;4257191;33;20274;-66
2021/05/09 04:33:18;;;;;;;15.87;8.00;;;;;;;;;;4258258;33;20366;-66
2021/05/09 04:35:45;;;;;;;22.87;8.43;;;;;;;;;;4258548;33;20197;-67
2021/05/09 04:38:12;;;;;;;21.07;7.60;;;;;;;;;;4258282;33;20217;-67
2021/05/09 04:40:40;;;;;;;18.20;7.40;;;;;;;;;;4258111;33;20264;-67
2021/05/09 04:43:15;;;;;;;19.83;7.13;;;;;;;;;;4258142;33;20225;-69
2021/05/09 04:45:40;;;;;;;16.13;6.63;;;;;;;;;;4258362;33;20240;-67
2021/05/09 04:48:06;;;;;;;17.03;5.93;;;;;;;;;;4258316;33;20619;-68
2021/05/09 04:50:33;;;;;;;12.43;5.13;;;;;;;;;;4270811;33;20693;-67
2021/05/09 04:53:01;;;;;;;12.43;4.90;;;;;;;;;;4286455;33;20312;-68
2021/05/09 04:55:27;;;;;;;8.00;4.50;;;;;;;;;;4286381;33;20498;-67
2021/05/09 04:57:52;;;;;;;10.03;4.80;;;;;;;;;;4286571;33;20219;-54
2021/05/09 05:00:18;;;;;;;8.33;4.40;;;;;;;;;;4296764;33;20283;-55
2021/05/09 05:02:47;;;;;;;9.83;4.00;;;;;;;;;;4286340;33;20875;-54
2021/05/09 05:05:15;;;;;;;9.00;5.20;;;;;;;;;;4286428;33;20271;-54
2021/05/09 05:07:41;;;;;;;6.00;4.03;;;;;;;;;;4284986;33;20258;-53
2021/05/09 05:10:07;;;;;;;10.57;4.47;;;;;;;;;;4286374;33;20275;-53
2021/05/09 05:12:34;;;;;;;7.30;4.03;;;;;;;;;;4285912;33;20220;-53
2021/05/09 05:15:00;;;;;;;12.87;4.50;;;;;;;;;;4272772;33;20224;-54
2021/05/09 05:17:25;;;;;;;10.00;3.97;;;;;;;;;;4286285;33;20708;-54
2021/05/09 05:19:51;;;;;;;11.70;3.83;;;;;;;;;;4258274;33;20346;-56
2021/05/09 05:22:17;;;;;;;11.90;4.17;;;;;;;;;;4257737;33;20312;-54
2021/05/09 05:24:43;;;;;;;8.17;3.60;;;;;;;;;;4257952;33;20718;-66
2021/05/09 05:27:08;;;;;;;8.53;4.70;;;;;;;;;;4257547;33;20247;-67
2021/05/09 05:29:34;;;;;;;13.43;4.87;;;;;;;;;;4257588;33;20725;-67
2021/05/09 05:31:59;;;;;;;15.50;5.00;;;;;;;;;;4257833;33;20309;-68
2021/05/09 05:34:24;;;;;;;9.20;5.50;;;;;;;;;;4257515;33;20324;-67
2021/05/09 05:36:50;;;;;;;13.27;6.53;;;;;;;;;;4257850;33;20240;-67
2021/05/09 05:39:16;;;;;;;21.73;6.53;;;;;;;;;;4257761;33;20574;-69
2021/05/09 05:41:41;;;;;;;24.67;8.13;;;;;;;;;;4256706;33;20239;-68
2021/05/09 05:44:08;;;;;;;18.80;8.93;;;;;;;;;;4258083;33;20745;-54
2021/05/09 05:46:34;;;;;;;20.53;7.83;;;;;;;;;;4267722;33;20295;-68
2021/05/09 05:49:00;;;;;;;22.00;8.80;;;;;;;;;;4267827;33;20295;-68
2021/05/09 05:51:26;;;;;;;26.53;9.37;;;;;;;;;;4270302;33;20347;-68
2021/05/09 05:53:56;;;;;;;21.63;7.10;;;;;;;;;;4285664;33;20302;-56
2021/05/09 05:56:23;;;;;;;13.57;7.23;;;;;;;;;;4272911;33;20649;-54
2021/05/09 05:58:49;;;;;;;23.90;7.73;;;;;;;;;;4285698;33;20693;-55
2021/05/09 06:01:15;;;;;;;17.10;9.23;;;;;;;;;;4285417;33;20291;-54
2021/05/09 06:03:41;;;;;;;20.23;8.43;;;;;;;;;;4285647;33;20310;-67
2021/05/09 06:06:07;;;;;;;17.07;7.30;;;;;;;;;;4285429;33;20621;-67
2021/05/09 06:08:33;;;;;;;12.33;5.90;;;;;;;;;;4285523;33;20275;-66
2021/05/09 06:10:58;;;;;;;10.07;4.73;;;;;;;;;;4284439;33;20295;-68
2021/05/09 06:13:25;;;;;;;8.87;4.80;;;;;;;;;;4285208;33;20323;-68
2021/05/09 06:15:50;;;;;;;16.27;5.87;;;;;;;;;;4285129;33;20832;-67
2021/05/09 06:18:17;;;;;;;21.53;5.23;;;;;;;;;;4276370;33;20224;-54
2021/05/09 06:20:42;;;;;;;5.57;4.07;;;;;;;;;;4267239;33;20384;-55
2021/05/09 06:23:10;;;;;;;12.37;4.00;;;;;;;;;;4267586;33;20604;-55
2021/05/09 06:25:36;;;;;;;12.47;4.93;;;;;;;;;;4257068;33;20216;-55
2021/05/09 06:28:03;;;;;;;8.73;4.60;;;;;;;;;;4257002;33;20248;-54
2021/05/09 06:30:30;;;;;;;7.00;4.13;;;;;;;;;;4256620;33;20231;-54
2021/05/09 06:32:56;;;;;;;18.70;5.37;;;;;;;;;;4256774;33;20260;-68
2021/05/09 06:35:22;;;;;;;4.80;3.00;;;;;;;;;;4256909;33;20298;-67
2021/05/09 06:37:52;;;;;;;8.23;3.27;;;;;;;;;;4256998;33;20209;-55
2021/05/09 06:40:20;;;;;;;10.17;3.10;;;;;;;;;;4256019;33;20193;-68
2021/05/09 06:42:53;;;;;;;7.43;3.40;;;;;;;;;;4257023;33;20344;-68
2021/05/09 06:45:25;;;;;;;6.60;3.00;;;;;;;;;;4267395;33;20228;-68
2021/05/09 06:47:51;;;;;;;6.63;2.70;;;;;;;;;;4256659;33;20288;-68
2021/05/09 06:50:16;;;;;;;13.10;3.27;;;;;;;;;;4266635;33;20267;-54
2021/05/09 06:52:43;;;;;;;7.83;3.87;;;;;;;;;;4271487;33;20231;-54
2021/05/09 06:55:10;;;;;;;6.33;3.00;;;;;;;;;;4284919;33;20287;-53
2021/05/09 06:57:36;;;;;;;7.40;3.07;;;;;;;;;;4284851;33;20224;-54
2021/05/09 07:00:04;;;;;;;8.83;3.20;;;;;;;;;;4284885;33;20310;-66
2021/05/09 07:02:30;;;;;;;8.23;3.50;;;;;;;;;;4284721;33;20724;-66
2021/05/09 07:04:56;;;;;;;5.00;2.90;;;;;;;;;;4284994;33;20287;-54
2021/05/09 07:07:22;;;;;;;4.93;3.13;;;;;;;;;;4284782;33;20215;-54
2021/05/09 07:09:48;;;;;;;8.90;3.37;;;;;;;;;;4284560;33;20338;-54
2021/05/09 07:12:17;;;;;;;6.53;3.17;;;;;;;;;;4284826;33;20230;-54
2021/05/09 07:14:43;;;;;;;7.03;2.47;;;;;;;;;;4284369;33;20212;-66
2021/05/09 07:17:09;;;;;;;6.00;2.80;;;;;;;;;;4284531;33;20220;-54
2021/05/09 07:19:35;;;;;;;6.67;2.67;;;;;;;;;;4259913;33;20701;-53
2021/05/09 07:22:06;;;;;;;4.23;2.57;;;;;;;;;;4256441;33;20279;-53
2021/05/09 07:24:31;;;;;;;6.97;3.37;;;;;;;;;;4255841;33;20189;-53
2021/05/09 07:26:57;;;;;;;3.73;3.07;;;;;;;;;;4256056;33;20216;-53
2021/05/09 07:29:23;;;;;;;4.40;3.00;;;;;;;;;;4256226;33;20295;-53
2021/05/09 07:31:49;;;;;;;5.47;2.70;;;;;;;;;;4255910;33;20244;-54
2021/05/09 07:34:15;;;;;;;4.43;2.80;;;;;;;;;;4256237;33;20322;-54
2021/05/09 07:36:40;;;;;;;3.93;2.80;;;;;;;;;;4255839;33;20244;-53
2021/05/09 07:39:07;;;;;;;4.87;3.03;;;;;;;;;;4266806;33;20375;-54
2021/05/09 07:41:33;;;;;;;5.40;2.93;;;;;;;;;;4255868;33;20676;-54
2021/05/09 07:43:59;;;;;;;6.20;2.77;;;;;;;;;;4254620;33;20315;-54
2021/05/09 07:46:24;;;;;;;3.17;2.33;;;;;;;;;;4266412;33;20217;-66
2021/05/09 07:48:50;;;;;;;3.60;2.30;;;;;;;;;;4256321;33;20263;-66
2021/05/09 07:51:17;;;;;;;7.00;2.20;;;;;;;;;;4277629;33;20397;-67
2021/05/09 07:53:43;;;;;;;3.55;2.50;;;;;;;;;;4284500;33;20207;-55
2021/05/09 07:56:09;;;;;;;4.63;2.40;;;;;;;;;;4270957;33;20341;-54
2021/05/09 07:58:38;;;;;;;3.03;2.03;;;;;;;;;;4284492;33;20295;-55
2021/05/09 08:01:04;;;;;;;2.95;2.03;;;;;;;;;;4284416;33;20619;-54
2021/05/09 08:03:30;;;;;;;3.60;1.97;;;;;;;;;;4294946;33;20370;-55
2021/05/09 08:05:59;;;;;;;2.58;1.60;;;;;;;;;;4285155;33;20291;-54
2021/05/09 08:08:26;;;;;;;3.47;1.83;;;;;;;;;;4287332;33;20303;-54
2021/05/09 08:10:52;;;;;;;3.62;1.80;;;;;;;;;;4287015;33;20524;-55
2021/05/09 08:13:18;;;;;;;5.28;2.20;;;;;;;;;;4286773;33;20697;-55
2021/05/09 08:15:43;;;;;;;3.33;1.53;;;;;;;;;;4287250;33;20302;-55
2021/05/09 08:18:09;;;;;;;5.93;1.93;;;;;;;;;;4279286;33;20225;-55
2021/05/09 08:20:36;;;;;;;5.43;1.80;;;;;;;;;;4258690;33;20291;-55
2021/05/09 08:23:02;;;;;;;5.12;1.90;;;;;;;;;;4258553;33;20229;-54
2021/05/09 08:25:28;;;;;;;2.42;1.37;;;;;;;;;;4258255;33;20302;-66
2021/05/09 08:27:54;;;;;;;2.55;1.52;;;;;;;;;;4258398;33;20228;-55
2021/05/09 08:30:22;;;;;;;2.53;1.55;;;;;;;;;;4258008;33;20659;-65
2021/05/09 08:32:48;;;;;;;8.02;2.00;;;;;;;;;;4258272;33;20337;-66
2021/05/09 08:35:14;;;;;;;1.87;1.67;;;;;;;;;;4258398;33;20348;-54
2021/05/09 08:37:42;;;;;;;5.20;1.85;;;;;;;;;;4258164;33;20255;-65
2021/05/09 08:40:13;;;;;;;3.40;1.60;;;;;;;;;;4258211;33;20276;-65
2021/05/09 08:42:40;;;;;;;4.93;2.45;;;;;;;;;;4258229;33;20360;-65
2021/05/09 08:45:07;;;;;;;2.83;1.95;;;;;;;;;;4268424;33;20240;-65
2021/05/09 08:47:40;;;;;;;2.83;2.12;;;;;;;;;;4257891;33;20315;-54
2021/05/09 08:50:06;;;;;;;2.25;2.05;;;;;;;;;;4265800;33;20224;-64
2021/05/09 08:52:34;;;;;;;3.08;2.20;;;;;;;;;;4286514;33;20339;-65
2021/05/09 08:55:01;;;;;;;6.25;2.30;;;;;;;;;;4297377;33;20618;-54
2021/05/09 08:57:27;;;;;;;4.50;1.62;;;;;;;;;;4286303;33;20228;-54
2021/05/09 08:59:53;;;;;;;3.55;2.37;;;;;;;;;;4286469;33;20338;-55
2021/05/09 09:02:22;;;;;;;3.78;1.55;;;;;;;;;;4286433;33;20243;-54
2021/05/09 09:04:51;;;;;;;2.22;1.62;;;;;;;;;;4285060;33;20626;-54
2021/05/09 09:07:17;;;;;;;2.55;1.50;;;;;;;;;;4286668;33;20606;-55
2021/05/09 09:09:44;;;;;;;2.05;1.40;;;;;;;;;;4286387;33;20271;-55
2021/05/09 09:12:11;;;;;;;4.03;1.58;;;;;;;;;;4286412;33;20211;-55
2021/05/09 09:15:00;;;;;;;4.32;1.35;;;;;;;;;;4285966;33;20225;-54
2021/05/09 09:17:28;;;;;;;3.05;1.42;;;;;;;;;;4286307;33;20217;-54
2021/05/09 09:20:02;;;;;;;3.33;1.40;;;;;;;;;;4256485;33;20225;-64
2021/05/09 09:22:55;;;;;;;2.47;1.60;;;;;;;;;;4257642;33;20281;-55
2021/05/09 09:25:23;;;;;;;2.53;1.60;;;;;;;;;;4257542;33;20370;-55
2021/05/09 09:27:50;;;;;;;3.50;1.77;;;;;;;;;;4256368;33;20277;-64
2021/05/09 09:30:17;;;;;;;2.83;1.55;;;;;;;;;;4257219;33;20441;-63
2021/05/09 09:33:09;;;;;;;5.90;1.60;;;;;;;;;;4257496;33;20267;-64
2021/05/09 09:35:35;;;;;;;3.45;1.80;;;;;;;;;;4244676;33;20422;-63
2021/05/09 09:38:20;;;;;;;3.00;1.60;;;;;;;;;;4257536;33;20224;-62
2021/05/09 09:41:15;;;;;;;6.90;1.60;;;;;;;;;;4257731;33;20273;-63
2021/05/09 09:43:45;;;;;;;4.62;2.33;;;;;;;;;;4257511;33;20336;-55
2021/05/09 09:46:32;;;;;;;4.15;2.05;;;;;;;;;;4257428;33;20553;-54
2021/05/09 09:48:58;;;;;;;4.00;2.35;;;;;;;;;;4257265;33;20205;-55
2021/05/09 09:51:24;;;;;;;3.75;2.22;;;;;;;;;;4280640;33;20668;-54
2021/05/09 09:53:56;;;;;;;6.30;2.42;;;;;;;;;;4285485;33;20274;-55
2021/05/09 09:56:24;;;;;;;3.70;2.12;;;;;;;;;;4285657;33;20196;-54
2021/05/09 09:58:49;;;;;;;5.50;2.03;;;;;;;;;;4285550;33;20200;-54
2021/05/09 10:01:22;;;;;;;20.10;3.22;;;;;;;;;;4285227;33;20302;-54
2021/05/09 10:03:48;;;;;;;5.80;2.83;;;;;;;;;;4285907;33;20263;-63
2021/05/09 10:06:15;;;;;;;3.87;2.10;;;;;;;;;;4285315;33;20279;-62
2021/05/09 10:08:41;;;;;;;3.00;1.67;;;;;;;;;;4285662;33;20212;-64
2021/05/09 10:11:07;;;;;;;5.80;2.53;;;;;;;;;;4285156;33;20267;-63
2021/05/09 10:13:34;;;;;;;4.85;2.40;;;;;;;;;;4285341;33;20223;-54
2021/05/09 10:16:01;;;;;;;7.50;1.90;;;;;;;;;;4284106;33;20537;-64
2021/05/09 10:18:27;;;;;;;2.30;1.20;;;;;;;;;;4274655;33;20232;-64
2021/05/09 10:20:55;;;;;;;1.25;0.80;;;;;;;;;;4257108;33;20280;-63
2021/05/09 10:23:21;;;;;;;4.87;1.25;;;;;;;;;;4256796;33;20220;-63
2021/05/09 10:25:58;;;;;;;1.73;1.00;;;;;;;;;;4256994;33;20395;-55
2021/05/09 10:28:27;;;;;;;3.47;2.33;;;;;;;;;;4255286;33;20260;-54
2021/05/09 10:30:58;;;;;;;1.75;1.20;;;;;;;;;;4255445;33;20707;-54
2021/05/09 10:33:42;;;;;;;2.12;0.90;;;;;;;;;;4256895;33;20247;-54
2021/05/09 10:36:16;;;;;;;1.70;0.90;;;;;;;;;;4256263;33;20204;-54
2021/05/09 10:39:12;;;;;;;0.68;0.65;;;;;;;;;;4256993;33;20189;-54
2021/05/09 10:41:58;;;;;;;6.47;0.60;;;;;;;;;;4256472;33;20251;-54
2021/05/09 10:44:48;;;;;;;1.00;0.80;;;;;;;;;;4256581;33;20204;-53
2021/05/09 10:47:19;;;;;;;1.40;0.80;;;;;;;;;;4256592;33;20745;-54
2021/05/09 10:50:20;;;;;;;3.70;0.93;;;;;;;;;;4260359;33;20343;-55
2021/05/09 10:52:47;;;;;;;2.30;0.80;;;;;;;;;;4284530;33;20718;-54
2021/05/09 10:55:41;;;;;;;2.15;0.93;;;;;;;;;;4284984;33;20275;-62
2021/05/09 10:58:17;;;;;;;1.75;1.00;;;;;;;;;;4284818;33;20219;-62
2021/05/09 11:00:59;;;;;;;1.70;0.80;;;;;;;;;;4284837;33;20184;-62
2021/05/09 11:03:38;;;;;;;0.93;0.80;;;;;;;;;;4284994;33;20303;-54
2021/05/09 11:06:07;;;;;;;4.75;1.02;;;;;;;;;;4283498;33;20239;-53
2021/05/09 11:08:45;;;;;;;2.45;1.00;;;;;;;;;;4284597;33;20280;-54
2021/05/09 11:11:26;;;;;;;1.48;0.90;;;;;;;;;;4283261;33;20753;-54
2021/05/09 11:13:58;;;;;;;1.67;0.80;;;;;;;;;;4283181;33;20262;-62
2021/05/09 11:16:37;;;;;;;3.55;0.85;;;;;;;;;;4284579;33;20336;-54
2021/05/09 11:19:13;;;;;;;13.98;0.95;;;;;;;;;;4266373;33;20307;-55
2021/05/09 11:21:46;;;;;;;2.33;1.08;;;;;;;;;;4256178;33;20208;-63
2021/05/09 11:24:25;;;;;;;7.35;1.00;;;;;;;;;;4256294;33;20189;-63
2021/05/09 11:26:53;;;;;;;2.17;0.88;;;;;;;;;;4256079;33;20300;-62
2021/05/09 11:29:23;;;;;;;3.70;1.12;;;;;;;;;;4256346;33;20239;-63
2021/05/09 11:31:58;;;;;;;2.62;1.20;;;;;;;;;;4254981;33;20217;-62
2021/05/09 11:34:26;;;;;;;7.90;1.10;;;;;;;;;;4255874;33;20216;-54
2021/05/09 11:36:54;;;;;;;2.33;0.90;;;;;;;;;;4266260;33;20262;-54
2021/05/09 11:39:35;;;;;;;4.45;1.08;;;;;;;;;;4254902;33;20671;-54
2021/05/09 11:42:13;;;;;;;2.03;1.05;;;;;;;;;;4269789;33;20259;-54
2021/05/09 11:44:51;;;;;;;2.03;1.23;;;;;;;;;;4258949;33;20185;-55
2021/05/09 11:47:23;;;;;;;4.53;1.10;;;;;;;;;;4259119;33;20235;-54
2021/05/09 11:49:55;;;;;;;6.68;1.70;;;;;;;;;;4263356;33;20222;-54
2021/05/09 11:52:27;;;;;;;2.65;1.30;;;;;;;;;;4287068;33;20221;-54
2021/05/09 11:54:58;;;;;;;5.75;1.50;;;;;;;;;;4287269;33;20259;-54
2021/05/09 11:57:26;;;;;;;3.90;0.65;;;;;;;;;;4287259;33;20248;-54
2021/05/09 11:59:55;;;;;;;2.70;1.05;;;;;;;;;;4287438;33;20196;-54
2021/05/09 12:02:22;;;;;;;1.58;0.90;;;;;;;;;;4287201;33;20397;-54
2021/05/09 12:05:11;;;;;;;1.85;1.40;;;;;;;;;;4287299;33;20200;-54
2021/05/09 12:07:51;;;;;;;7.03;1.25;;;;;;;;;;4287231;33;20243;-53
2021/05/09 12:10:25;;;;;;;3.25;1.00;;;;;;;;;;4287091;33;20187;-55
2021/05/09 12:13:08;;;;;;;1.73;1.33;;;;;;;;;;4286827;33;20209;-54
2021/05/09 12:15:43;;;;;;;5.32;1.40;;;;;;;;;;4287404;33;20208;-54
2021/05/09 12:18:10;;;;;;;2.47;1.20;;;;;;;;;;4279534;33;20283;-54
2021/05/09 12:20:46;;;;;;;1.73;0.82;;;;;;;;;;4258525;33;20212;-55
2021/05/09 12:23:18;;;;;;;1.67;0.98;;;;;;;;;;4258733;33;20247;-54
2021/05/09 12:25:45;;;;;;;2.28;1.40;;;;;;;;;;4258194;33;20343;-63
2021/05/09 12:28:14;;;;;;;8.48;1.37;;;;;;;;;;4258248;33;20245;-63
2021/05/09 12:30:42;;;;;;;3.50;1.40;;;;;;;;;;4258238;33;20267;-62
2021/05/09 12:33:07;;;;;;;4.10;1.35;;;;;;;;;;4258374;33;20342;-61
2021/05/09 12:35:48;;;;;;;13.98;1.48;;;;;;;;;;4258216;33;20314;-61
2021/05/09 12:38:27;;;;;;;4.57;1.42;;;;;;;;;;4258670;33;20212;-61
2021/05/09 12:41:11;;;;;;;5.85;1.42;;;;;;;;;;4258570;33;20193;-62
2021/05/09 12:43:43;;;;;;;5.47;1.87;;;;;;;;;;4258328;33;20473;-62
2021/05/09 12:46:08;;;;;;;2.87;1.65;;;;;;;;;;4258239;33;20334;-62
2021/05/09 12:48:34;;;;;;;2.12;1.27;;;;;;;;;;4258154;33;20371;-63
2021/05/09 12:51:14;;;;;;;6.68;1.40;;;;;;;;;;4276128;33;20297;-62
2021/05/09 12:53:51;;;;;;;2.72;1.48;;;;;;;;;;4286751;33;20765;-63
2021/05/09 12:56:25;;;;;;;4.03;1.12;;;;;;;;;;4285047;33;20413;-62
2021/05/09 12:59:03;;;;;;;1.67;1.30;;;;;;;;;;4286139;33;20534;-62
2021/05/09 13:01:32;;;;;;;4.55;2.00;;;;;;;;;;4286114;33;20610;-62
2021/05/09 13:03:58;;;;;;;4.72;1.70;;;;;;;;;;4285141;33;20208;-62
2021/05/09 13:06:24;;;;;;;1.73;0.90;;;;;;;;;;4286301;33;20192;-62
2021/05/09 13:08:51;;;;;;;2.92;1.00;;;;;;;;;;4286284;33;20290;-62
2021/05/09 13:11:16;;;;;;;1.80;1.20;;;;;;;;;;4286153;33;20302;-63
2021/05/09 13:13:42;;;;;;;1.83;0.80;;;;;;;;;;4285771;33;20716;-63
2021/05/09 13:16:08;;;;;;;2.28;1.10;;;;;;;;;;4285740;33;20271;-62
2021/05/09 13:18:33;;;;;;;2.53;1.00;;;;;;;;;;4273744;33;20346;-62
2021/05/09 13:21:00;;;;;;;1.85;1.17;;;;;;;;;;4257526;33;20303;-62
2021/05/09 13:23:27;;;;;;;1.35;0.80;;;;;;;;;;4268243;33;20236;-62
2021/05/09 13:25:54;;;;;;;1.45;0.82;;;;;;;;;;4257846;33;20294;-62
2021/05/09 13:28:20;;;;;;;2.47;0.90;;;;;;;;;;4257725;33;20527;-63
2021/05/09 13:30:46;;;;;;;5.68;0.90;;;;;;;;;;4257478;33;20200;-63
2021/05/09 13:33:12;;;;;;;2.15;1.17;;;;;;;;;;4257814;33;20581;-54
2021/05/09 13:35:37;;;;;;;0.73;0.55;;;;;;;;;;4257611;33;20268;-54
2021/05/09 13:38:03;;;;;;;5.22;0.75;;;;;;;;;;4267881;33;20661;-55
2021/05/09 13:40:30;;;;;;;8.32;1.00;;;;;;;;;;4257645;33;20291;-56
2021/05/09 13:42:55;;;;;;;1.85;1.00;;;;;;;;;;4257658;33;20322;-54
2021/05/09 13:45:21;;;;;;;10.90;1.00;;;;;;;;;;4267997;33;20690;-62
2021/05/09 13:47:49;;;;;;;3.25;1.10;;;;;;;;;;4257790;33;20302;-62
2021/05/09 13:50:15;;;;;;;0.82;0.80;;;;;;;;;;4278120;33;20345;-62
2021/05/09 13:52:44;;;;;;;1.83;1.00;;;;;;;;;;4286138;33;20579;-62
2021/05/09 13:55:11;;;;;;;1.87;0.85;;;;;;;;;;4286382;33;20623;-56
2021/05/09 13:57:37;;;;;;;3.03;1.17;;;;;;;;;;4286137;33;20550;-54
2021/05/09 14:00:05;;;;;;;2.37;0.90;;;;;;;;;;4286018;33;20291;-55
2021/05/09 14:02:31;;;;;;;2.22;0.90;;;;;;;;;;4284809;33;20270;-55
2021/05/09 14:04:57;;;;;;;1.33;0.90;;;;;;;;;;4285515;33;20658;-54
2021/05/09 14:07:22;;;;;;;2.70;1.15;;;;;;;;;;4285551;33;20246;-63
2021/05/09 14:09:48;;;;;;;2.87;1.00;;;;;;;;;;4285910;33;20693;-61
2021/05/09 14:12:14;;;;;;;8.35;1.77;;;;;;;;;;4285307;33;20212;-64
2021/05/09 14:14:41;;;;;;;1.70;1.10;;;;;;;;;;4284808;33;20279;-61
2021/05/09 14:17:08;;;;;;;1.17;0.95;;;;;;;;;;4285185;33;20306;-56
2021/05/09 14:19:33;;;;;;;2.72;1.02;;;;;;;;;;4261434;33;20474;-56
2021/05/09 14:22:01;;;;;;;7.53;1.25;;;;;;;;;;4257041;33;20212;-55
2021/05/09 14:24:27;;;;;;;3.15;0.52;;;;;;;;;;4257152;33;20200;-55
2021/05/09 14:26:54;;;;;;;1.60;1.00;;;;;;;;;;4256629;33;20217;-55
2021/05/09 14:29:19;;;;;;;4.50;0.60;;;;;;;;;;4256589;33;20330;-55
2021/05/09 14:31:45;;;;;;;5.25;1.02;;;;;;;;;;4256822;33;20363;-55
2021/05/09 14:34:10;;;;;;;2.00;0.88;;;;;;;;;;4256792;33;20342;-61
2021/05/09 14:36:36;;;;;;;7.37;1.40;;;;;;;;;;4256878;33;20308;-61
2021/05/09 14:39:03;;;;;;;4.43;1.30;;;;;;;;;;4267161;33;20296;-61
2021/05/09 14:41:28;;;;;;;13.10;0.90;;;;;;;;;;4256489;33;20283;-61
2021/05/09 14:43:54;;;;;;;2.00;1.00;;;;;;;;;;4257015;33;20638;-62
2021/05/09 14:46:19;;;;;;;5.40;1.42;;;;;;;;;;4266915;33;20351;-62